Le Pharaon — HO3121 — position and weather

sailwx.info

Track history (hours):
 
Tides and Currents Weather Stations Pressure Air Temp Water Temp Dewpoint Dewpoint Depression Visibility Wind Speed Wind Dir Waves Ship Positions

Le Pharaon

Last reported at 2018-May-24 02:00 UTC. Time now 2018-May-24 02:26 UTC.
Position N 39°31' E 002°34'.

Length 60 m; draft 3.5 m.

Type: Pleasure craft. MMSI: 335150000.

Date/timePositionNaut miles runAvg speedWind from/ knotsBaromVisibWave heightAir tempDewpointWater temp
2018-May-24 02:00N 39°31' E 002°34'0 0.0
2018-May-24 01:30N 39°31' E 002°34'0 0.0
2018-May-24 01:00N 39°31' E 002°34'0 0.0
2018-May-24 00:30N 39°31' E 002°34'0 0.0
2018-May-24 00:00N 39°31' E 002°34'0 0.0
2018-May-23 23:30N 39°31' E 002°34'0 0.0
2018-May-23 23:00N 39°31' E 002°34'0 0.0
2018-May-23 22:30N 39°31' E 002°34'0 0.0
2018-May-23 22:00N 39°31' E 002°34'0 0.0
2018-May-23 21:30N 39°31' E 002°34'0 0.0
2018-May-23 21:00N 39°31' E 002°34'0 0.0
2018-May-23 20:30N 39°31' E 002°34'0 0.0
2018-May-23 20:00N 39°31' E 002°34'0 0.0
2018-May-23 19:30N 39°31' E 002°34'0 0.0
2018-May-23 18:57N 39°31' E 002°34'0 0.0
2018-May-23 18:30N 39°31' E 002°34'0 0.0
2018-May-23 18:00N 39°31' E 002°34'0 0.0
2018-May-23 17:30N 39°31' E 002°34'0 0.8
2018-May-23 17:01N 39°31' E 002°34'4 8.8
2018-May-23 16:30N 39°27' E 002°33'5 8.8
2018-May-23 15:59N 39°26' E 002°27'44 7.8
2018-May-23 10:23N 40°10' E 002°33'4 9.6
2018-May-23 09:59N 40°13' E 002°36'610.8
2018-May-23 09:28N 40°18' E 002°39'26511.3
2018-May-22 10:05N 43°18' E 007°00'112.5
2018-May-22 10:00N 43°18' E 007°02'612.3
2018-May-22 09:30N 43°21' E 007°10'812.8
2018-May-22 08:54N 43°26' E 007°18'  
Track history (hours):
 
Tides and Currents Weather Stations Pressure Air Temp Water Temp Dewpoint Dewpoint Depression Visibility Wind Speed Wind Dir Waves Ship Positions

Le Pharaon

Last reported at 2018-May-24 02:00 UTC. Time now 2018-May-24 02:26 UTC.
Position N 39°31' E 002°34'.

Length 60 m; draft 3.5 m.

Type: Pleasure craft. MMSI: 335150000.

Date/timePositionNaut miles runAvg speedWind from/ knotsBaromVisibWave heightAir tempDewpointWater temp
2018-May-24 02:00N 39°31' E 002°34'0 0.0
2018-May-24 01:30N 39°31' E 002°34'0 0.0
2018-May-24 01:00N 39°31' E 002°34'0 0.0
2018-May-24 00:30N 39°31' E 002°34'0 0.0
2018-May-24 00:00N 39°31' E 002°34'0 0.0
2018-May-23 23:30N 39°31' E 002°34'0 0.0
2018-May-23 23:00N 39°31' E 002°34'0 0.0
2018-May-23 22:30N 39°31' E 002°34'0 0.0
2018-May-23 22:00N 39°31' E 002°34'0 0.0
2018-May-23 21:30N 39°31' E 002°34'0 0.0
2018-May-23 21:00N 39°31' E 002°34'0 0.0
2018-May-23 20:30N 39°31' E 002°34'0 0.0
2018-May-23 20:00N 39°31' E 002°34'0 0.0
2018-May-23 19:30N 39°31' E 002°34'0 0.0
2018-May-23 18:57N 39°31' E 002°34'0 0.0
2018-May-23 18:30N 39°31' E 002°34'0 0.0
2018-May-23 18:00N 39°31' E 002°34'0 0.0
2018-May-23 17:30N 39°31' E 002°34'0 0.8
2018-May-23 17:01N 39°31' E 002°34'4 8.8
2018-May-23 16:30N 39°27' E 002°33'5 8.8
2018-May-23 15:59N 39°26' E 002°27'44 7.8
2018-May-23 10:23N 40°10' E 002°33'4 9.6
2018-May-23 09:59N 40°13' E 002°36'610.8
2018-May-23 09:28N 40°18' E 002°39'26511.3
2018-May-22 10:05N 43°18' E 007°00'112.5
2018-May-22 10:00N 43°18' E 007°02'612.3
2018-May-22 09:30N 43°21' E 007°10'812.8
2018-May-22 08:54N 43°26' E 007°18'  

Dump ship's entire track history